South Dennis, Massachusetts
Current Conditions -  °F | °C
As of 7:56 AM on Thursday 23 Oct 2014 (Local Time) from KHYA Reporting Station
Few Clouds Few Clouds  
Wind Chill: 58°   Ceiling: Unl
Heat Index: 58°   Visibility: 10mi
Dew Point: 55°   Wind: 13mph
Humidity: 90%   Direction: 10°N
Pressure: 29.53"   Gusts: NA
Location:  41.7°N, 70.16°W
Report Text: KHYA 231156Z 01011KT 10SM FEW050 14/13 A2953 RMK AO2 SLP001 60003 70120 T01440128 10156 20139 55008
Loading
Personal Weather Stations






























Interactive Weather Map
Tropical Storm Tracking
New forecast layout! Learn more

10-Day Weather Forecast

Advertisements
Track Severe Weather on mobile